sensor_id;sensor_type;location;lat;lon;timestamp;P1;durP1;ratioP1;P2;durP2;ratioP2
33074;SDS011;19433;51.292;6.868;2023-04-05T05:33:04;7.30;;;6.60;;
33074;SDS011;19433;51.292;6.868;2023-04-05T05:35:29;7.40;;;6.70;;
33074;SDS011;19433;51.292;6.868;2023-04-05T05:37:55;10.57;;;7.30;;
33074;SDS011;19433;51.292;6.868;2023-04-05T05:40:20;10.70;;;6.67;;
33074;SDS011;19433;51.292;6.868;2023-04-05T05:42:45;9.37;;;6.37;;
33074;SDS011;19433;51.292;6.868;2023-04-05T05:45:11;8.30;;;6.70;;
33074;SDS011;19433;51.292;6.868;2023-04-05T05:47:36;6.90;;;5.97;;
33074;SDS011;19433;51.292;6.868;2023-04-05T05:50:02;10.83;;;7.80;;
33074;SDS011;19433;51.292;6.868;2023-04-05T05:52:27;8.50;;;7.07;;
33074;SDS011;19433;51.292;6.868;2023-04-05T05:54:53;7.43;;;6.63;;
33074;SDS011;19433;51.292;6.868;2023-04-05T05:57:18;7.43;;;6.70;;
33074;SDS011;19433;51.292;6.868;2023-04-05T05:59:44;11.13;;;7.80;;
33074;SDS011;19433;51.292;6.868;2023-04-05T06:02:09;8.77;;;7.30;;
33074;SDS011;19433;51.292;6.868;2023-04-05T06:04:35;8.00;;;6.30;;
33074;SDS011;19433;51.292;6.868;2023-04-05T06:07:01;11.20;;;7.90;;
33074;SDS011;19433;51.292;6.868;2023-04-05T06:09:27;8.83;;;7.40;;
33074;SDS011;19433;51.292;6.868;2023-04-05T06:11:53;14.33;;;6.87;;
33074;SDS011;19433;51.292;6.868;2023-04-05T06:14:18;10.70;;;7.17;;
33074;SDS011;19433;51.292;6.868;2023-04-05T06:16:43;11.83;;;7.10;;
33074;SDS011;19433;51.292;6.868;2023-04-05T06:19:09;8.77;;;6.43;;
33074;SDS011;19433;51.292;6.868;2023-04-05T06:21:35;10.93;;;7.40;;
33074;SDS011;19433;51.292;6.868;2023-04-05T06:24:00;17.23;;;7.07;;
33074;SDS011;19433;51.292;6.868;2023-04-05T06:26:25;8.50;;;7.70;;
33074;SDS011;19433;51.292;6.868;2023-04-05T06:28:52;12.23;;;7.90;;
33074;SDS011;19433;51.292;6.868;2023-04-05T06:31:25;11.63;;;7.47;;
33074;SDS011;19433;51.292;6.868;2023-04-05T06:33:51;9.73;;;7.10;;
33074;SDS011;19433;51.292;6.868;2023-04-05T06:36:17;8.00;;;7.20;;
33074;SDS011;19433;51.292;6.868;2023-04-05T06:38:42;9.50;;;7.00;;
33074;SDS011;19433;51.292;6.868;2023-04-05T06:41:07;7.10;;;6.50;;
33074;SDS011;19433;51.292;6.868;2023-04-05T06:43:33;7.53;;;5.43;;
33074;SDS011;19433;51.292;6.868;2023-04-05T06:45:58;5.20;;;4.80;;
33074;SDS011;19433;51.292;6.868;2023-04-05T06:48:25;5.60;;;5.03;;
33074;SDS011;19433;51.292;6.868;2023-04-05T06:51:00;5.80;;;5.30;;
33074;SDS011;19433;51.292;6.868;2023-04-05T06:53:27;5.23;;;4.73;;
33074;SDS011;19433;51.292;6.868;2023-04-05T06:55:56;7.20;;;4.80;;
33074;SDS011;19433;51.292;6.868;2023-04-05T06:58:23;6.07;;;4.90;;
33074;SDS011;19433;51.292;6.868;2023-04-05T07:00:50;5.20;;;4.70;;
33074;SDS011;19433;51.292;6.868;2023-04-05T07:03:16;5.07;;;4.57;;
33074;SDS011;19433;51.292;6.868;2023-04-05T07:05:49;6.20;;;4.70;;
33074;SDS011;19433;51.292;6.868;2023-04-05T07:08:18;6.30;;;4.60;;
33074;SDS011;19433;51.292;6.868;2023-04-05T07:10:45;6.93;;;5.33;;
33074;SDS011;19433;51.292;6.868;2023-04-05T07:13:10;4.90;;;4.50;;
33074;SDS011;19433;51.292;6.868;2023-04-05T07:15:35;6.50;;;4.83;;
33074;SDS011;19433;51.292;6.868;2023-04-05T07:18:01;4.87;;;4.47;;
33074;SDS011;19433;51.292;6.868;2023-04-05T07:20:26;5.53;;;4.97;;
33074;SDS011;19433;51.292;6.868;2023-04-05T07:22:51;5.13;;;4.67;;
33074;SDS011;19433;51.292;6.868;2023-04-05T07:25:16;8.10;;;4.70;;
33074;SDS011;19433;51.292;6.868;2023-04-05T07:27:42;7.07;;;3.90;;
33074;SDS011;19433;51.292;6.868;2023-04-05T07:30:07;4.13;;;3.73;;
33074;SDS011;19433;51.292;6.868;2023-04-05T07:32:33;5.00;;;3.80;;
33074;SDS011;19433;51.292;6.868;2023-04-05T07:34:58;6.30;;;4.20;;
33074;SDS011;19433;51.292;6.868;2023-04-05T07:37:24;8.37;;;4.53;;
33074;SDS011;19433;51.292;6.868;2023-04-05T07:39:51;6.80;;;4.40;;
33074;SDS011;19433;51.292;6.868;2023-04-05T07:42:16;4.80;;;4.40;;
33074;SDS011;19433;51.292;6.868;2023-04-05T07:44:43;4.90;;;4.13;;
33074;SDS011;19433;51.292;6.868;2023-04-05T07:47:08;4.40;;;3.70;;
33074;SDS011;19433;51.292;6.868;2023-04-05T07:49:33;4.90;;;4.50;;
33074;SDS011;19433;51.292;6.868;2023-04-05T07:52:01;4.53;;;4.13;;
33074;SDS011;19433;51.292;6.868;2023-04-05T07:54:26;5.73;;;4.00;;
33074;SDS011;19433;51.292;6.868;2023-04-05T07:56:51;10.33;;;4.73;;
33074;SDS011;19433;51.292;6.868;2023-04-05T07:59:19;8.83;;;4.73;;
33074;SDS011;19433;51.292;6.868;2023-04-05T08:01:44;21.73;;;6.37;;
33074;SDS011;19433;51.292;6.868;2023-04-05T08:04:10;11.53;;;5.17;;
33074;SDS011;19433;51.292;6.868;2023-04-05T08:06:36;4.97;;;4.67;;
33074;SDS011;19433;51.292;6.868;2023-04-05T08:09:02;5.23;;;4.73;;
33074;SDS011;19433;51.292;6.868;2023-04-05T08:11:29;5.23;;;4.73;;
33074;SDS011;19433;51.292;6.868;2023-04-05T08:13:55;5.00;;;4.40;;
33074;SDS011;19433;51.292;6.868;2023-04-05T08:16:21;9.23;;;4.70;;
33074;SDS011;19433;51.292;6.868;2023-04-05T08:18:46;4.47;;;4.17;;
33074;SDS011;19433;51.292;6.868;2023-04-05T08:21:11;5.20;;;4.67;;
33074;SDS011;19433;51.292;6.868;2023-04-05T08:23:37;4.67;;;4.30;;
33074;SDS011;19433;51.292;6.868;2023-04-05T08:26:02;5.37;;;4.97;;
33074;SDS011;19433;51.292;6.868;2023-04-05T08:28:28;4.30;;;3.90;;
33074;SDS011;19433;51.292;6.868;2023-04-05T08:30:53;5.70;;;5.20;;
33074;SDS011;19433;51.292;6.868;2023-04-05T08:33:20;5.33;;;4.57;;
33074;SDS011;19433;51.292;6.868;2023-04-05T08:35:45;4.17;;;3.87;;
33074;SDS011;19433;51.292;6.868;2023-04-05T08:38:11;4.87;;;4.27;;
33074;SDS011;19433;51.292;6.868;2023-04-05T08:40:40;5.73;;;4.83;;
33074;SDS011;19433;51.292;6.868;2023-04-05T08:43:32;4.97;;;4.57;;
33074;SDS011;19433;51.292;6.868;2023-04-05T08:46:08;4.30;;;4.00;;
33074;SDS011;19433;51.292;6.868;2023-04-05T08:48:37;4.97;;;4.57;;
33074;SDS011;19433;51.292;6.868;2023-04-05T08:51:05;4.67;;;4.27;;
33074;SDS011;19433;51.292;6.868;2023-04-05T08:53:30;4.20;;;3.90;;
33074;SDS011;19433;51.292;6.868;2023-04-05T08:55:57;4.87;;;4.47;;
33074;SDS011;19433;51.292;6.868;2023-04-05T08:58:25;4.50;;;4.10;;
33074;SDS011;19433;51.292;6.868;2023-04-05T09:00:51;4.03;;;3.73;;
33074;SDS011;19433;51.292;6.868;2023-04-05T09:03:21;4.53;;;4.10;;
33074;SDS011;19433;51.292;6.868;2023-04-05T09:05:51;4.37;;;3.97;;
33074;SDS011;19433;51.292;6.868;2023-04-05T09:08:18;5.17;;;4.20;;
33074;SDS011;19433;51.292;6.868;2023-04-05T09:10:48;3.90;;;3.70;;
33074;SDS011;19433;51.292;6.868;2023-04-05T09:13:17;5.20;;;4.77;;
33074;SDS011;19433;51.292;6.868;2023-04-05T09:15:43;4.73;;;4.40;;
33074;SDS011;19433;51.292;6.868;2023-04-05T09:18:08;7.67;;;4.50;;
33074;SDS011;19433;51.292;6.868;2023-04-05T09:20:34;4.00;;;3.73;;
33074;SDS011;19433;51.292;6.868;2023-04-05T09:22:59;4.33;;;3.93;;
33074;SDS011;19433;51.292;6.868;2023-04-05T09:27:55;4.53;;;3.90;;
33074;SDS011;19433;51.292;6.868;2023-04-05T09:30:21;4.77;;;4.37;;
33074;SDS011;19433;51.292;6.868;2023-04-05T09:32:49;4.20;;;3.73;;
33074;SDS011;19433;51.292;6.868;2023-04-05T09:35:21;4.30;;;3.80;;
33074;SDS011;19433;51.292;6.868;2023-04-05T09:37:49;4.70;;;4.40;;
33074;SDS011;19433;51.292;6.868;2023-04-05T09:40:19;4.33;;;4.00;;
33074;SDS011;19433;51.292;6.868;2023-04-05T09:42:45;4.17;;;3.87;;
33074;SDS011;19433;51.292;6.868;2023-04-05T09:45:10;4.20;;;3.80;;
33074;SDS011;19433;51.292;6.868;2023-04-05T09:47:36;3.80;;;3.60;;
33074;SDS011;19433;51.292;6.868;2023-04-05T09:52:39;4.13;;;3.83;;
33074;SDS011;19433;51.292;6.868;2023-04-05T09:55:05;6.30;;;4.07;;
33074;SDS011;19433;51.292;6.868;2023-04-05T09:57:32;4.20;;;3.90;;
33074;SDS011;19433;51.292;6.868;2023-04-05T09:59:59;4.50;;;4.00;;
33074;SDS011;19433;51.292;6.868;2023-04-05T10:02:24;4.43;;;4.13;;
33074;SDS011;19433;51.292;6.868;2023-04-05T10:05:04;5.37;;;4.90;;
33074;SDS011;19433;51.292;6.868;2023-04-05T10:07:31;4.23;;;4.03;;
33074;SDS011;19433;51.292;6.868;2023-04-05T10:09:56;4.83;;;4.53;;
33074;SDS011;19433;51.292;6.868;2023-04-05T10:12:25;4.40;;;4.10;;
33074;SDS011;19433;51.292;6.868;2023-04-05T10:14:51;4.90;;;4.60;;
33074;SDS011;19433;51.292;6.868;2023-04-05T10:20:17;5.23;;;4.80;;
33074;SDS011;19433;51.292;6.868;2023-04-05T10:28:25;5.30;;;4.47;;
33074;SDS011;19433;51.292;6.868;2023-04-05T10:31:01;4.00;;;3.77;;
33074;SDS011;19433;51.292;6.868;2023-04-05T10:33:38;4.63;;;4.23;;
33074;SDS011;19433;51.292;6.868;2023-04-05T10:41:48;4.77;;;4.37;;
33074;SDS011;19433;51.292;6.868;2023-04-05T10:44:17;4.73;;;4.37;;
33074;SDS011;19433;51.292;6.868;2023-04-05T10:46:43;4.47;;;4.17;;
33074;SDS011;19433;51.292;6.868;2023-04-05T10:51:54;4.77;;;4.30;;
33074;SDS011;19433;51.292;6.868;2023-04-05T10:54:20;4.43;;;4.13;;
33074;SDS011;19433;51.292;6.868;2023-04-05T10:56:46;4.47;;;4.17;;
33074;SDS011;19433;51.292;6.868;2023-04-05T10:59:12;4.17;;;3.87;;
33074;SDS011;19433;51.292;6.868;2023-04-05T11:01:39;4.80;;;4.40;;
33074;SDS011;19433;51.292;6.868;2023-04-05T11:04:14;4.37;;;3.97;;
33074;SDS011;19433;51.292;6.868;2023-04-05T11:06:41;4.57;;;4.27;;
33074;SDS011;19433;51.292;6.868;2023-04-05T11:09:11;4.20;;;3.90;;
33074;SDS011;19433;51.292;6.868;2023-04-05T11:11:40;4.50;;;4.10;;
33074;SDS011;19433;51.292;6.868;2023-04-05T11:14:15;5.10;;;4.70;;
33074;SDS011;19433;51.292;6.868;2023-04-05T11:16:59;5.90;;;5.40;;
33074;SDS011;19433;51.292;6.868;2023-04-05T11:22:12;4.47;;;4.23;;
33074;SDS011;19433;51.292;6.868;2023-04-05T11:24:49;5.30;;;4.90;;
33074;SDS011;19433;51.292;6.868;2023-04-05T11:27:23;4.77;;;4.37;;
33074;SDS011;19433;51.292;6.868;2023-04-05T11:30:02;5.10;;;4.70;;
33074;SDS011;19433;51.292;6.868;2023-04-05T11:32:42;4.83;;;4.43;;
33074;SDS011;19433;51.292;6.868;2023-04-05T11:35:12;4.97;;;4.67;;
33074;SDS011;19433;51.292;6.868;2023-04-05T11:37:54;4.73;;;4.43;;
33074;SDS011;19433;51.292;6.868;2023-04-05T11:40:30;5.20;;;4.80;;
33074;SDS011;19433;51.292;6.868;2023-04-05T11:43:00;5.07;;;4.67;;
33074;SDS011;19433;51.292;6.868;2023-04-05T11:45:37;5.00;;;4.70;;
33074;SDS011;19433;51.292;6.868;2023-04-05T11:48:04;5.40;;;4.90;;
33074;SDS011;19433;51.292;6.868;2023-04-05T11:50:30;5.13;;;4.67;;
33074;SDS011;19433;51.292;6.868;2023-04-05T11:55:37;6.23;;;5.57;;
33074;SDS011;19433;51.292;6.868;2023-04-05T11:58:15;6.13;;;5.63;;
33074;SDS011;19433;51.292;6.868;2023-04-05T12:00:41;6.90;;;6.30;;
33074;SDS011;19433;51.292;6.868;2023-04-05T12:03:10;6.43;;;6.03;;
33074;SDS011;19433;51.292;6.868;2023-04-05T12:05:47;7.70;;;7.00;;
33074;SDS011;19433;51.292;6.868;2023-04-05T12:08:14;5.30;;;5.00;;
33074;SDS011;19433;51.292;6.868;2023-04-05T12:10:39;6.67;;;6.17;;
33074;SDS011;19433;51.292;6.868;2023-04-05T12:13:04;7.20;;;6.60;;
33074;SDS011;19433;51.292;6.868;2023-04-05T12:15:30;5.60;;;5.20;;
33074;SDS011;19433;51.292;6.868;2023-04-05T12:17:55;6.27;;;5.80;;
33074;SDS011;19433;51.292;6.868;2023-04-05T12:20:22;6.07;;;5.67;;
33074;SDS011;19433;51.292;6.868;2023-04-05T12:22:51;6.67;;;6.10;;
33074;SDS011;19433;51.292;6.868;2023-04-05T12:25:18;5.30;;;4.90;;
33074;SDS011;19433;51.292;6.868;2023-04-05T12:27:44;6.43;;;5.87;;
33074;SDS011;19433;51.292;6.868;2023-04-05T12:30:17;7.10;;;6.40;;
33074;SDS011;19433;51.292;6.868;2023-04-05T12:32:49;5.60;;;5.20;;
33074;SDS011;19433;51.292;6.868;2023-04-05T12:35:16;6.90;;;6.30;;
33074;SDS011;19433;51.292;6.868;2023-04-05T12:37:42;5.73;;;5.33;;
33074;SDS011;19433;51.292;6.868;2023-04-05T12:40:07;6.23;;;5.73;;
33074;SDS011;19433;51.292;6.868;2023-04-05T12:42:34;6.10;;;5.70;;
33074;SDS011;19433;51.292;6.868;2023-04-05T12:45:11;6.20;;;5.60;;
33074;SDS011;19433;51.292;6.868;2023-04-05T12:47:55;6.07;;;5.57;;
33074;SDS011;19433;51.292;6.868;2023-04-05T12:50:26;5.57;;;5.17;;
33074;SDS011;19433;51.292;6.868;2023-04-05T12:55:23;6.50;;;6.00;;
33074;SDS011;19433;51.292;6.868;2023-04-05T12:57:50;5.57;;;5.07;;
33074;SDS011;19433;51.292;6.868;2023-04-05T13:00:17;5.97;;;5.37;;
33074;SDS011;19433;51.292;6.868;2023-04-05T13:02:45;5.77;;;5.37;;
33074;SDS011;19433;51.292;6.868;2023-04-05T13:05:12;5.20;;;4.90;;
33074;SDS011;19433;51.292;6.868;2023-04-05T13:07:38;5.60;;;5.17;;
33074;SDS011;19433;51.292;6.868;2023-04-05T13:10:03;6.10;;;5.60;;
33074;SDS011;19433;51.292;6.868;2023-04-05T13:12:29;7.27;;;5.90;;
33074;SDS011;19433;51.292;6.868;2023-04-05T13:14:54;6.43;;;6.03;;
33074;SDS011;19433;51.292;6.868;2023-04-05T13:17:19;8.20;;;6.60;;
33074;SDS011;19433;51.292;6.868;2023-04-05T13:19:46;5.93;;;5.50;;
33074;SDS011;19433;51.292;6.868;2023-04-05T13:22:11;5.67;;;5.30;;
33074;SDS011;19433;51.292;6.868;2023-04-05T13:24:36;6.17;;;5.67;;
33074;SDS011;19433;51.292;6.868;2023-04-05T13:27:01;5.90;;;5.43;;
33074;SDS011;19433;51.292;6.868;2023-04-05T13:29:27;6.63;;;6.13;;
33074;SDS011;19433;51.292;6.868;2023-04-05T13:31:52;6.70;;;6.30;;
33074;SDS011;19433;51.292;6.868;2023-04-05T13:34:17;6.63;;;6.20;;
33074;SDS011;19433;51.292;6.868;2023-04-05T13:36:43;6.40;;;5.97;;
33074;SDS011;19433;51.292;6.868;2023-04-05T13:39:08;6.67;;;5.33;;
33074;SDS011;19433;51.292;6.868;2023-04-05T13:41:33;6.00;;;5.50;;
33074;SDS011;19433;51.292;6.868;2023-04-05T13:43:58;6.43;;;6.03;;
33074;SDS011;19433;51.292;6.868;2023-04-05T13:46:24;5.70;;;5.20;;
33074;SDS011;19433;51.292;6.868;2023-04-05T13:48:49;6.40;;;6.00;;
33074;SDS011;19433;51.292;6.868;2023-04-05T13:51:15;6.20;;;5.80;;
33074;SDS011;19433;51.292;6.868;2023-04-05T13:53:40;7.07;;;6.37;;
33074;SDS011;19433;51.292;6.868;2023-04-05T13:56:05;7.63;;;5.80;;
33074;SDS011;19433;51.292;6.868;2023-04-05T13:58:31;7.00;;;6.40;;
33074;SDS011;19433;51.292;6.868;2023-04-05T14:00:56;6.53;;;6.03;;
33074;SDS011;19433;51.292;6.868;2023-04-05T14:03:22;6.83;;;6.30;;
33074;SDS011;19433;51.292;6.868;2023-04-05T14:05:48;7.57;;;7.00;;
33074;SDS011;19433;51.292;6.868;2023-04-05T14:08:13;7.87;;;7.27;;
33074;SDS011;19433;51.292;6.868;2023-04-05T14:10:39;6.90;;;6.40;;
33074;SDS011;19433;51.292;6.868;2023-04-05T14:13:04;7.40;;;6.80;;
33074;SDS011;19433;51.292;6.868;2023-04-05T14:15:30;6.87;;;6.27;;
33074;SDS011;19433;51.292;6.868;2023-04-05T14:17:55;7.70;;;6.90;;
33074;SDS011;19433;51.292;6.868;2023-04-05T14:20:21;7.90;;;7.30;;
33074;SDS011;19433;51.292;6.868;2023-04-05T14:22:46;7.60;;;6.93;;
33074;SDS011;19433;51.292;6.868;2023-04-05T14:25:11;7.40;;;6.90;;
33074;SDS011;19433;51.292;6.868;2023-04-05T14:27:37;6.90;;;6.40;;
33074;SDS011;19433;51.292;6.868;2023-04-05T14:30:06;8.23;;;7.53;;
33074;SDS011;19433;51.292;6.868;2023-04-05T14:32:32;9.63;;;6.40;;
33074;SDS011;19433;51.292;6.868;2023-04-05T14:34:57;6.93;;;6.33;;
33074;SDS011;19433;51.292;6.868;2023-04-05T14:37:22;7.80;;;7.20;;
33074;SDS011;19433;51.292;6.868;2023-04-05T14:39:48;7.43;;;6.83;;
33074;SDS011;19433;51.292;6.868;2023-04-05T14:42:14;7.47;;;6.80;;
33074;SDS011;19433;51.292;6.868;2023-04-05T14:44:39;6.57;;;5.97;;
33074;SDS011;19433;51.292;6.868;2023-04-05T14:47:05;8.87;;;7.20;;
33074;SDS011;19433;51.292;6.868;2023-04-05T14:49:30;7.50;;;6.90;;
33074;SDS011;19433;51.292;6.868;2023-04-05T14:51:55;7.97;;;7.17;;
33074;SDS011;19433;51.292;6.868;2023-04-05T14:54:21;8.87;;;8.03;;
33074;SDS011;19433;51.292;6.868;2023-04-05T14:56:46;8.70;;;7.90;;
33074;SDS011;19433;51.292;6.868;2023-04-05T14:59:11;7.73;;;7.13;;
33074;SDS011;19433;51.292;6.868;2023-04-05T15:01:37;7.57;;;6.97;;
33074;SDS011;19433;51.292;6.868;2023-04-05T15:04:03;8.10;;;7.60;;
33074;SDS011;19433;51.292;6.868;2023-04-05T15:06:29;9.30;;;8.17;;
33074;SDS011;19433;51.292;6.868;2023-04-05T15:08:54;8.00;;;7.40;;
33074;SDS011;19433;51.292;6.868;2023-04-05T15:11:19;8.03;;;7.33;;
33074;SDS011;19433;51.292;6.868;2023-04-05T15:13:45;8.00;;;7.30;;
33074;SDS011;19433;51.292;6.868;2023-04-05T15:16:10;7.30;;;6.70;;
33074;SDS011;19433;51.292;6.868;2023-04-05T15:18:36;8.40;;;7.60;;
33074;SDS011;19433;51.292;6.868;2023-04-05T15:21:01;7.17;;;6.57;;
33074;SDS011;19433;51.292;6.868;2023-04-05T15:23:27;7.30;;;6.70;;
33074;SDS011;19433;51.292;6.868;2023-04-05T15:25:52;8.07;;;7.37;;
33074;SDS011;19433;51.292;6.868;2023-04-05T15:28:17;7.87;;;7.17;;
33074;SDS011;19433;51.292;6.868;2023-04-05T15:30:43;8.50;;;7.70;;
33074;SDS011;19433;51.292;6.868;2023-04-05T15:33:09;8.20;;;7.50;;
33074;SDS011;19433;51.292;6.868;2023-04-05T15:35:35;8.67;;;7.33;;
33074;SDS011;19433;51.292;6.868;2023-04-05T15:38:01;7.87;;;7.17;;
33074;SDS011;19433;51.292;6.868;2023-04-05T15:40:26;8.13;;;7.40;;
33074;SDS011;19433;51.292;6.868;2023-04-05T15:42:53;8.80;;;7.97;;
33074;SDS011;19433;51.292;6.868;2023-04-05T15:45:19;8.17;;;7.57;;
33074;SDS011;19433;51.292;6.868;2023-04-05T15:47:44;7.43;;;6.83;;
33074;SDS011;19433;51.292;6.868;2023-04-05T15:50:09;7.80;;;7.00;;
33074;SDS011;19433;51.292;6.868;2023-04-05T15:52:35;11.17;;;7.97;;
33074;SDS011;19433;51.292;6.868;2023-04-05T15:55:00;8.90;;;8.20;;
33074;SDS011;19433;51.292;6.868;2023-04-05T15:57:26;7.13;;;6.53;;
33074;SDS011;19433;51.292;6.868;2023-04-05T15:59:51;8.70;;;7.90;;
33074;SDS011;19433;51.292;6.868;2023-04-05T16:02:18;7.70;;;7.03;;
33074;SDS011;19433;51.292;6.868;2023-04-05T16:04:44;9.07;;;8.30;;
33074;SDS011;19433;51.292;6.868;2023-04-05T16:07:09;8.37;;;7.67;;
33074;SDS011;19433;51.292;6.868;2023-04-05T16:09:34;7.47;;;6.87;;
33074;SDS011;19433;51.292;6.868;2023-04-05T16:12:00;8.07;;;7.27;;
33074;SDS011;19433;51.292;6.868;2023-04-05T16:14:26;7.90;;;7.10;;
33074;SDS011;19433;51.292;6.868;2023-04-05T16:16:51;8.73;;;7.83;;
33074;SDS011;19433;51.292;6.868;2023-04-05T16:19:17;8.30;;;7.57;;
33074;SDS011;19433;51.292;6.868;2023-04-05T16:21:42;8.03;;;7.30;;
33074;SDS011;19433;51.292;6.868;2023-04-05T16:24:07;9.80;;;8.90;;
33074;SDS011;19433;51.292;6.868;2023-04-05T16:26:33;8.60;;;7.70;;
33074;SDS011;19433;51.292;6.868;2023-04-05T16:28:58;9.73;;;8.70;;
33074;SDS011;19433;51.292;6.868;2023-04-05T16:31:24;10.60;;;8.40;;
33074;SDS011;19433;51.292;6.868;2023-04-05T16:33:50;9.27;;;7.90;;
33074;SDS011;19433;51.292;6.868;2023-04-05T16:36:17;7.63;;;6.93;;
33074;SDS011;19433;51.292;6.868;2023-04-05T16:38:42;8.83;;;8.03;;
33074;SDS011;19433;51.292;6.868;2023-04-05T16:41:08;8.83;;;8.03;;
33074;SDS011;19433;51.292;6.868;2023-04-05T16:43:33;9.17;;;8.27;;
33074;SDS011;19433;51.292;6.868;2023-04-05T16:45:58;9.73;;;8.60;;
33074;SDS011;19433;51.292;6.868;2023-04-05T16:48:24;8.53;;;7.70;;
33074;SDS011;19433;51.292;6.868;2023-04-05T16:50:49;9.47;;;8.43;;
33074;SDS011;19433;51.292;6.868;2023-04-05T16:53:14;9.40;;;7.83;;
33074;SDS011;19433;51.292;6.868;2023-04-05T16:55:40;10.80;;;6.90;;
33074;SDS011;19433;51.292;6.868;2023-04-05T16:58:05;8.97;;;7.03;;
33074;SDS011;19433;51.292;6.868;2023-04-05T17:00:31;10.57;;;8.37;;
33074;SDS011;19433;51.292;6.868;2023-04-05T17:02:57;9.20;;;8.07;;
33074;SDS011;19433;51.292;6.868;2023-04-05T17:05:22;9.03;;;8.13;;
33074;SDS011;19433;51.292;6.868;2023-04-05T17:07:48;10.27;;;9.27;;
33074;SDS011;19433;51.292;6.868;2023-04-05T17:10:13;8.60;;;7.80;;
33074;SDS011;19433;51.292;6.868;2023-04-05T17:12:38;12.50;;;8.80;;
33074;SDS011;19433;51.292;6.868;2023-04-05T17:15:08;14.10;;;9.23;;
33074;SDS011;19433;51.292;6.868;2023-04-05T17:17:34;11.10;;;8.03;;
33074;SDS011;19433;51.292;6.868;2023-04-05T17:19:59;10.77;;;9.77;;
33074;SDS011;19433;51.292;6.868;2023-04-05T17:22:25;7.77;;;7.07;;
33074;SDS011;19433;51.292;6.868;2023-04-05T17:24:50;9.80;;;8.50;;
33074;SDS011;19433;51.292;6.868;2023-04-05T17:27:15;12.80;;;7.90;;
33074;SDS011;19433;51.292;6.868;2023-04-05T17:29:41;10.63;;;9.53;;
33074;SDS011;19433;51.292;6.868;2023-04-05T17:32:06;9.40;;;8.50;;
33074;SDS011;19433;51.292;6.868;2023-04-05T17:34:32;9.30;;;8.40;;
33074;SDS011;19433;51.292;6.868;2023-04-05T17:36:57;9.63;;;7.73;;
33074;SDS011;19433;51.292;6.868;2023-04-05T17:39:23;9.57;;;7.87;;
33074;SDS011;19433;51.292;6.868;2023-04-05T17:41:49;9.97;;;8.53;;
33074;SDS011;19433;51.292;6.868;2023-04-05T17:44:14;8.47;;;6.97;;
33074;SDS011;19433;51.292;6.868;2023-04-05T17:46:40;8.33;;;7.63;;
33074;SDS011;19433;51.292;6.868;2023-04-05T17:49:05;8.80;;;7.17;;
33074;SDS011;19433;51.292;6.868;2023-04-05T17:51:31;8.50;;;7.50;;
33074;SDS011;19433;51.292;6.868;2023-04-05T17:53:57;7.83;;;7.13;;
33074;SDS011;19433;51.292;6.868;2023-04-05T17:56:23;7.60;;;6.90;;
33074;SDS011;19433;51.292;6.868;2023-04-05T17:58:48;9.70;;;8.40;;
33074;SDS011;19433;51.292;6.868;2023-04-05T18:01:14;10.00;;;7.60;;
33074;SDS011;19433;51.292;6.868;2023-04-05T18:03:39;14.20;;;8.63;;
33074;SDS011;19433;51.292;6.868;2023-04-05T18:06:05;11.73;;;7.90;;
33074;SDS011;19433;51.292;6.868;2023-04-05T18:08:31;8.00;;;6.87;;
33074;SDS011;19433;51.292;6.868;2023-04-05T18:10:57;9.00;;;8.10;;
33074;SDS011;19433;51.292;6.868;2023-04-05T18:13:23;10.80;;;7.40;;
33074;SDS011;19433;51.292;6.868;2023-04-05T18:15:56;9.13;;;6.60;;
33074;SDS011;19433;51.292;6.868;2023-04-05T18:18:23;8.93;;;8.00;;
33074;SDS011;19433;51.292;6.868;2023-04-05T18:20:50;7.17;;;6.47;;
33074;SDS011;19433;51.292;6.868;2023-04-05T18:23:16;7.40;;;6.70;;
33074;SDS011;19433;51.292;6.868;2023-04-05T18:25:42;7.80;;;6.57;;
33074;SDS011;19433;51.292;6.868;2023-04-05T18:28:09;11.23;;;7.67;;
33074;SDS011;19433;51.292;6.868;2023-04-05T18:51:13;7.20;;;6.50;;
33074;SDS011;19433;51.292;6.868;2023-04-05T20:23:10;9.43;;;7.33;;
33074;SDS011;19433;51.292;6.868;2023-04-05T20:25:38;8.33;;;6.70;;
33074;SDS011;19433;51.292;6.868;2023-04-05T20:31:16;6.67;;;6.03;;
33074;SDS011;19433;51.292;6.868;2023-04-05T20:33:48;6.73;;;5.90;;
33074;SDS011;19433;51.292;6.868;2023-04-05T20:36:29;6.20;;;5.60;;
33074;SDS011;19433;51.292;6.868;2023-04-05T20:39:00;6.47;;;5.87;;
33074;SDS011;19433;51.292;6.868;2023-04-05T20:41:26;8.00;;;5.67;;
33074;SDS011;19433;51.292;6.868;2023-04-05T20:43:52;7.40;;;6.70;;
33074;SDS011;19433;51.292;6.868;2023-04-05T20:46:21;6.83;;;5.83;;
33074;SDS011;19433;51.292;6.868;2023-04-05T20:48:46;7.80;;;6.53;;
33074;SDS011;19433;51.292;6.868;2023-04-05T20:51:12;9.43;;;5.97;;
33074;SDS011;19433;51.292;6.868;2023-04-05T20:53:38;6.70;;;5.93;;
33074;SDS011;19433;51.292;6.868;2023-04-05T20:56:04;8.87;;;7.17;;
33074;SDS011;19433;51.292;6.868;2023-04-05T20:58:31;7.53;;;6.00;;
33074;SDS011;19433;51.292;6.868;2023-04-05T21:00:57;12.90;;;8.00;;
33074;SDS011;19433;51.292;6.868;2023-04-05T21:03:26;8.40;;;6.13;;
33074;SDS011;19433;51.292;6.868;2023-04-05T21:05:53;7.93;;;6.40;;
33074;SDS011;19433;51.292;6.868;2023-04-05T21:08:18;9.20;;;6.63;;
33074;SDS011;19433;51.292;6.868;2023-04-05T21:10:43;6.63;;;6.03;;
33074;SDS011;19433;51.292;6.868;2023-04-05T21:13:09;8.63;;;6.77;;
33074;SDS011;19433;51.292;6.868;2023-04-05T21:15:35;7.47;;;6.77;;
33074;SDS011;19433;51.292;6.868;2023-04-05T21:18:00;7.73;;;6.60;;
33074;SDS011;19433;51.292;6.868;2023-04-05T21:20:27;9.63;;;7.03;;
33074;SDS011;19433;51.292;6.868;2023-04-05T21:22:53;8.87;;;7.20;;
33074;SDS011;19433;51.292;6.868;2023-04-05T21:25:20;8.30;;;7.00;;
33074;SDS011;19433;51.292;6.868;2023-04-05T21:27:46;7.63;;;6.83;;
33074;SDS011;19433;51.292;6.868;2023-04-05T21:30:11;6.67;;;6.07;;
33074;SDS011;19433;51.292;6.868;2023-04-05T21:32:37;8.33;;;7.00;;
33074;SDS011;19433;51.292;6.868;2023-04-05T21:35:02;7.73;;;6.90;;
33074;SDS011;19433;51.292;6.868;2023-04-05T21:37:28;8.20;;;6.33;;
33074;SDS011;19433;51.292;6.868;2023-04-05T21:39:53;6.83;;;6.13;;
33074;SDS011;19433;51.292;6.868;2023-04-05T21:42:19;11.30;;;7.40;;
33074;SDS011;19433;51.292;6.868;2023-04-05T21:44:44;9.20;;;7.37;;
33074;SDS011;19433;51.292;6.868;2023-04-05T21:47:09;9.17;;;6.27;;
33074;SDS011;19433;51.292;6.868;2023-04-05T21:49:35;8.47;;;6.67;;
33074;SDS011;19433;51.292;6.868;2023-04-05T21:52:00;9.60;;;6.60;;
33074;SDS011;19433;51.292;6.868;2023-04-05T21:54:25;7.20;;;6.27;;
33074;SDS011;19433;51.292;6.868;2023-04-05T21:56:51;9.40;;;6.57;;
33074;SDS011;19433;51.292;6.868;2023-04-05T21:59:16;9.27;;;6.30;;
33074;SDS011;19433;51.292;6.868;2023-04-05T22:01:41;12.33;;;7.00;;
33074;SDS011;19433;51.292;6.868;2023-04-05T22:04:07;7.80;;;6.73;;
33074;SDS011;19433;51.292;6.868;2023-04-05T22:06:32;9.33;;;7.60;;
33074;SDS011;19433;51.292;6.868;2023-04-05T22:08:57;7.73;;;6.70;;
33074;SDS011;19433;51.292;6.868;2023-04-05T22:11:23;8.43;;;6.83;;
33074;SDS011;19433;51.292;6.868;2023-04-05T22:13:49;8.87;;;6.57;;
33074;SDS011;19433;51.292;6.868;2023-04-05T22:16:15;9.73;;;7.20;;
33074;SDS011;19433;51.292;6.868;2023-04-05T22:18:41;7.70;;;6.43;;
33074;SDS011;19433;51.292;6.868;2023-04-05T22:21:06;6.97;;;6.37;;
33074;SDS011;19433;51.292;6.868;2023-04-05T22:23:32;6.87;;;6.27;;
33074;SDS011;19433;51.292;6.868;2023-04-05T22:25:57;8.00;;;6.20;;
33074;SDS011;19433;51.292;6.868;2023-04-05T22:28:22;8.60;;;7.40;;
33074;SDS011;19433;51.292;6.868;2023-04-05T22:30:48;6.50;;;5.90;;
33074;SDS011;19433;51.292;6.868;2023-04-05T22:33:13;7.03;;;6.30;;
33074;SDS011;19433;51.292;6.868;2023-04-05T22:35:39;8.20;;;6.67;;
33074;SDS011;19433;51.292;6.868;2023-04-05T22:38:06;7.27;;;6.47;;